sensor_id;sensor_type;location;lat;lon;timestamp;P1;durP1;ratioP1;P2;durP2;ratioP2
15936;SDS011;9163;48.818;8.976;2023-06-14T00:00:22;5.47;;;3.23;;
15936;SDS011;9163;48.818;8.976;2023-06-14T00:02:50;6.93;;;4.10;;
15936;SDS011;9163;48.818;8.976;2023-06-14T00:05:21;6.07;;;3.70;;
15936;SDS011;9163;48.818;8.976;2023-06-14T00:07:48;4.73;;;3.30;;
15936;SDS011;9163;48.818;8.976;2023-06-14T00:10:19;5.63;;;3.90;;
15936;SDS011;9163;48.818;8.976;2023-06-14T00:12:46;6.73;;;3.67;;
15936;SDS011;9163;48.818;8.976;2023-06-14T00:15:14;5.93;;;3.80;;
15936;SDS011;9163;48.818;8.976;2023-06-14T00:17:41;5.20;;;3.60;;
15936;SDS011;9163;48.818;8.976;2023-06-14T00:20:14;8.63;;;4.00;;
15936;SDS011;9163;48.818;8.976;2023-06-14T00:22:41;6.40;;;4.30;;
15936;SDS011;9163;48.818;8.976;2023-06-14T00:25:08;7.03;;;4.13;;
15936;SDS011;9163;48.818;8.976;2023-06-14T00:27:36;8.93;;;5.23;;
15936;SDS011;9163;48.818;8.976;2023-06-14T00:30:03;6.03;;;4.57;;
15936;SDS011;9163;48.818;8.976;2023-06-14T00:32:31;7.40;;;4.53;;
15936;SDS011;9163;48.818;8.976;2023-06-14T00:34:58;7.90;;;4.13;;
15936;SDS011;9163;48.818;8.976;2023-06-14T00:37:27;6.00;;;3.77;;
15936;SDS011;9163;48.818;8.976;2023-06-14T00:39:54;5.77;;;3.93;;
15936;SDS011;9163;48.818;8.976;2023-06-14T00:42:24;5.20;;;3.80;;
15936;SDS011;9163;48.818;8.976;2023-06-14T00:44:52;4.47;;;3.70;;
15936;SDS011;9163;48.818;8.976;2023-06-14T00:47:19;5.30;;;3.93;;
15936;SDS011;9163;48.818;8.976;2023-06-14T00:49:47;5.30;;;4.30;;
15936;SDS011;9163;48.818;8.976;2023-06-14T00:52:16;5.30;;;4.13;;
15936;SDS011;9163;48.818;8.976;2023-06-14T00:54:46;7.07;;;4.63;;
15936;SDS011;9163;48.818;8.976;2023-06-14T00:57:13;7.97;;;4.10;;
15936;SDS011;9163;48.818;8.976;2023-06-14T00:59:42;10.00;;;4.60;;
15936;SDS011;9163;48.818;8.976;2023-06-14T01:02:10;7.70;;;4.70;;
15936;SDS011;9163;48.818;8.976;2023-06-14T01:04:40;7.87;;;4.43;;
15936;SDS011;9163;48.818;8.976;2023-06-14T01:07:11;6.40;;;4.57;;
15936;SDS011;9163;48.818;8.976;2023-06-14T01:09:51;9.17;;;4.73;;
15936;SDS011;9163;48.818;8.976;2023-06-14T01:12:29;5.30;;;4.53;;
15936;SDS011;9163;48.818;8.976;2023-06-14T01:15:03;6.80;;;4.27;;
15936;SDS011;9163;48.818;8.976;2023-06-14T01:17:31;6.97;;;4.20;;
15936;SDS011;9163;48.818;8.976;2023-06-14T01:20:01;6.60;;;4.03;;
15936;SDS011;9163;48.818;8.976;2023-06-14T01:22:29;5.23;;;3.60;;
15936;SDS011;9163;48.818;8.976;2023-06-14T01:24:58;5.37;;;3.90;;
15936;SDS011;9163;48.818;8.976;2023-06-14T01:27:25;6.77;;;4.10;;
15936;SDS011;9163;48.818;8.976;2023-06-14T01:29:54;5.93;;;3.57;;
15936;SDS011;9163;48.818;8.976;2023-06-14T01:32:23;4.37;;;3.37;;
15936;SDS011;9163;48.818;8.976;2023-06-14T01:34:52;5.73;;;3.93;;
15936;SDS011;9163;48.818;8.976;2023-06-14T01:37:19;4.63;;;3.73;;
15936;SDS011;9163;48.818;8.976;2023-06-14T01:39:48;5.20;;;3.17;;
15936;SDS011;9163;48.818;8.976;2023-06-14T01:42:18;4.50;;;3.53;;
15936;SDS011;9163;48.818;8.976;2023-06-14T01:44:46;4.97;;;4.07;;
15936;SDS011;9163;48.818;8.976;2023-06-14T01:47:14;4.73;;;4.03;;
15936;SDS011;9163;48.818;8.976;2023-06-14T01:49:41;6.13;;;4.00;;
15936;SDS011;9163;48.818;8.976;2023-06-14T01:52:09;4.57;;;3.70;;
15936;SDS011;9163;48.818;8.976;2023-06-14T01:54:36;6.00;;;3.77;;
15936;SDS011;9163;48.818;8.976;2023-06-14T01:57:07;10.63;;;4.37;;
15936;SDS011;9163;48.818;8.976;2023-06-14T01:59:37;5.13;;;4.10;;
15936;SDS011;9163;48.818;8.976;2023-06-14T02:02:04;6.23;;;4.00;;
15936;SDS011;9163;48.818;8.976;2023-06-14T02:04:31;7.07;;;4.73;;
15936;SDS011;9163;48.818;8.976;2023-06-14T02:06:59;6.03;;;4.80;;
15936;SDS011;9163;48.818;8.976;2023-06-14T02:09:27;7.13;;;4.90;;
15936;SDS011;9163;48.818;8.976;2023-06-14T02:11:54;6.17;;;4.83;;
15936;SDS011;9163;48.818;8.976;2023-06-14T02:14:21;8.57;;;5.10;;
15936;SDS011;9163;48.818;8.976;2023-06-14T02:16:50;10.17;;;5.20;;
15936;SDS011;9163;48.818;8.976;2023-06-14T02:19:18;5.40;;;4.40;;
15936;SDS011;9163;48.818;8.976;2023-06-14T02:21:47;6.17;;;4.33;;
15936;SDS011;9163;48.818;8.976;2023-06-14T02:24:14;7.87;;;4.07;;
15936;SDS011;9163;48.818;8.976;2023-06-14T02:26:41;6.53;;;4.40;;
15936;SDS011;9163;48.818;8.976;2023-06-14T02:29:08;7.33;;;4.10;;
15936;SDS011;9163;48.818;8.976;2023-06-14T02:31:38;6.67;;;4.17;;
15936;SDS011;9163;48.818;8.976;2023-06-14T02:34:06;5.87;;;4.27;;
15936;SDS011;9163;48.818;8.976;2023-06-14T02:36:34;7.37;;;4.10;;
15936;SDS011;9163;48.818;8.976;2023-06-14T02:39:07;5.43;;;4.43;;
15936;SDS011;9163;48.818;8.976;2023-06-14T02:41:35;4.67;;;3.77;;
15936;SDS011;9163;48.818;8.976;2023-06-14T02:44:03;5.00;;;4.10;;
15936;SDS011;9163;48.818;8.976;2023-06-14T02:46:30;4.30;;;3.77;;
15936;SDS011;9163;48.818;8.976;2023-06-14T02:48:58;8.87;;;4.80;;
15936;SDS011;9163;48.818;8.976;2023-06-14T02:51:27;6.17;;;4.27;;
15936;SDS011;9163;48.818;8.976;2023-06-14T02:53:54;7.43;;;5.00;;
15936;SDS011;9163;48.818;8.976;2023-06-14T02:56:21;7.60;;;4.93;;
15936;SDS011;9163;48.818;8.976;2023-06-14T02:58:49;7.20;;;4.57;;
15936;SDS011;9163;48.818;8.976;2023-06-14T03:01:16;6.63;;;4.70;;
15936;SDS011;9163;48.818;8.976;2023-06-14T03:03:46;6.87;;;4.57;;
15936;SDS011;9163;48.818;8.976;2023-06-14T03:06:13;6.13;;;4.70;;
15936;SDS011;9163;48.818;8.976;2023-06-14T03:08:43;7.27;;;4.90;;
15936;SDS011;9163;48.818;8.976;2023-06-14T03:11:11;6.37;;;4.73;;
15936;SDS011;9163;48.818;8.976;2023-06-14T03:13:38;8.80;;;4.70;;
15936;SDS011;9163;48.818;8.976;2023-06-14T03:16:06;7.10;;;4.83;;
15936;SDS011;9163;48.818;8.976;2023-06-14T03:18:34;7.23;;;4.43;;
15936;SDS011;9163;48.818;8.976;2023-06-14T03:21:02;7.27;;;4.77;;
15936;SDS011;9163;48.818;8.976;2023-06-14T03:23:30;6.53;;;4.73;;
15936;SDS011;9163;48.818;8.976;2023-06-14T03:25:59;7.97;;;4.60;;
15936;SDS011;9163;48.818;8.976;2023-06-14T03:28:26;6.40;;;4.50;;
15936;SDS011;9163;48.818;8.976;2023-06-14T03:30:53;7.20;;;5.13;;
15936;SDS011;9163;48.818;8.976;2023-06-14T03:33:21;6.77;;;4.80;;
15936;SDS011;9163;48.818;8.976;2023-06-14T03:35:48;7.93;;;5.47;;
15936;SDS011;9163;48.818;8.976;2023-06-14T03:38:15;7.97;;;5.27;;
15936;SDS011;9163;48.818;8.976;2023-06-14T03:40:43;11.03;;;5.80;;
15936;SDS011;9163;48.818;8.976;2023-06-14T03:43:12;7.40;;;5.47;;
15936;SDS011;9163;48.818;8.976;2023-06-14T03:45:39;7.47;;;5.77;;
15936;SDS011;9163;48.818;8.976;2023-06-14T03:48:08;7.00;;;5.03;;
15936;SDS011;9163;48.818;8.976;2023-06-14T03:50:36;8.13;;;5.33;;
15936;SDS011;9163;48.818;8.976;2023-06-14T03:53:03;7.83;;;5.20;;
15936;SDS011;9163;48.818;8.976;2023-06-14T03:55:31;7.50;;;5.60;;
15936;SDS011;9163;48.818;8.976;2023-06-14T03:57:58;11.67;;;5.70;;
15936;SDS011;9163;48.818;8.976;2023-06-14T04:00:27;10.03;;;5.90;;
15936;SDS011;9163;48.818;8.976;2023-06-14T04:02:54;7.17;;;6.10;;
15936;SDS011;9163;48.818;8.976;2023-06-14T04:05:21;7.57;;;6.27;;
15936;SDS011;9163;48.818;8.976;2023-06-14T04:07:51;8.60;;;6.00;;
15936;SDS011;9163;48.818;8.976;2023-06-14T04:10:21;7.33;;;5.90;;
15936;SDS011;9163;48.818;8.976;2023-06-14T04:12:48;7.83;;;5.00;;
15936;SDS011;9163;48.818;8.976;2023-06-14T04:15:16;8.20;;;4.83;;
15936;SDS011;9163;48.818;8.976;2023-06-14T04:17:45;7.17;;;4.87;;
15936;SDS011;9163;48.818;8.976;2023-06-14T04:20:12;6.80;;;4.87;;
15936;SDS011;9163;48.818;8.976;2023-06-14T04:22:39;7.93;;;4.90;;
15936;SDS011;9163;48.818;8.976;2023-06-14T04:25:08;6.37;;;4.40;;
15936;SDS011;9163;48.818;8.976;2023-06-14T04:27:35;7.10;;;4.80;;
15936;SDS011;9163;48.818;8.976;2023-06-14T04:30:04;6.57;;;4.60;;
15936;SDS011;9163;48.818;8.976;2023-06-14T04:32:33;10.67;;;5.60;;
15936;SDS011;9163;48.818;8.976;2023-06-14T04:35:06;8.10;;;5.20;;
15936;SDS011;9163;48.818;8.976;2023-06-14T04:37:34;7.10;;;5.20;;
15936;SDS011;9163;48.818;8.976;2023-06-14T04:40:06;7.97;;;5.20;;
15936;SDS011;9163;48.818;8.976;2023-06-14T04:42:34;8.97;;;5.70;;
15936;SDS011;9163;48.818;8.976;2023-06-14T04:45:02;8.20;;;5.23;;
15936;SDS011;9163;48.818;8.976;2023-06-14T04:47:30;7.37;;;5.47;;
15936;SDS011;9163;48.818;8.976;2023-06-14T04:49:57;6.47;;;5.10;;
15936;SDS011;9163;48.818;8.976;2023-06-14T04:52:27;8.43;;;5.77;;
15936;SDS011;9163;48.818;8.976;2023-06-14T04:54:55;7.87;;;5.30;;
15936;SDS011;9163;48.818;8.976;2023-06-14T04:57:23;5.40;;;4.47;;
15936;SDS011;9163;48.818;8.976;2023-06-14T04:59:51;6.70;;;4.60;;
15936;SDS011;9163;48.818;8.976;2023-06-14T05:02:20;5.53;;;4.37;;
15936;SDS011;9163;48.818;8.976;2023-06-14T05:04:49;6.00;;;4.43;;
15936;SDS011;9163;48.818;8.976;2023-06-14T05:07:16;8.30;;;4.40;;
15936;SDS011;9163;48.818;8.976;2023-06-14T05:09:45;6.40;;;4.00;;
15936;SDS011;9163;48.818;8.976;2023-06-14T05:12:12;5.70;;;4.43;;
15936;SDS011;9163;48.818;8.976;2023-06-14T05:14:43;7.60;;;4.60;;
15936;SDS011;9163;48.818;8.976;2023-06-14T05:17:11;5.40;;;4.40;;
15936;SDS011;9163;48.818;8.976;2023-06-14T05:19:38;8.87;;;4.57;;
15936;SDS011;9163;48.818;8.976;2023-06-14T05:22:06;7.93;;;4.90;;
15936;SDS011;9163;48.818;8.976;2023-06-14T05:24:33;7.10;;;4.50;;
15936;SDS011;9163;48.818;8.976;2023-06-14T05:27:02;8.43;;;4.60;;
15936;SDS011;9163;48.818;8.976;2023-06-14T05:29:29;8.70;;;5.10;;
15936;SDS011;9163;48.818;8.976;2023-06-14T05:31:57;8.10;;;4.70;;
15936;SDS011;9163;48.818;8.976;2023-06-14T05:34:24;9.67;;;4.90;;
15936;SDS011;9163;48.818;8.976;2023-06-14T05:36:51;11.50;;;4.80;;
15936;SDS011;9163;48.818;8.976;2023-06-14T05:39:18;9.63;;;4.70;;
15936;SDS011;9163;48.818;8.976;2023-06-14T05:41:45;10.23;;;4.93;;
15936;SDS011;9163;48.818;8.976;2023-06-14T05:44:14;9.57;;;5.03;;
15936;SDS011;9163;48.818;8.976;2023-06-14T05:46:41;8.63;;;4.90;;
15936;SDS011;9163;48.818;8.976;2023-06-14T05:49:08;11.90;;;4.60;;
15936;SDS011;9163;48.818;8.976;2023-06-14T05:51:37;6.40;;;4.50;;
15936;SDS011;9163;48.818;8.976;2023-06-14T05:54:04;7.70;;;5.40;;
15936;SDS011;9163;48.818;8.976;2023-06-14T05:56:31;9.90;;;4.67;;
15936;SDS011;9163;48.818;8.976;2023-06-14T05:58:59;9.77;;;4.50;;
15936;SDS011;9163;48.818;8.976;2023-06-14T06:01:27;7.33;;;4.37;;
15936;SDS011;9163;48.818;8.976;2023-06-14T06:03:56;7.63;;;4.67;;
15936;SDS011;9163;48.818;8.976;2023-06-14T06:06:23;7.67;;;4.40;;
15936;SDS011;9163;48.818;8.976;2023-06-14T06:08:50;7.33;;;5.13;;
15936;SDS011;9163;48.818;8.976;2023-06-14T06:11:17;6.33;;;4.47;;
15936;SDS011;9163;48.818;8.976;2023-06-14T06:13:45;7.30;;;4.50;;
15936;SDS011;9163;48.818;8.976;2023-06-14T06:16:12;6.43;;;4.50;;
15936;SDS011;9163;48.818;8.976;2023-06-14T06:18:41;5.23;;;4.20;;
15936;SDS011;9163;48.818;8.976;2023-06-14T06:21:08;6.27;;;4.60;;
15936;SDS011;9163;48.818;8.976;2023-06-14T06:23:36;7.53;;;4.50;;
15936;SDS011;9163;48.818;8.976;2023-06-14T06:26:03;7.67;;;4.83;;
15936;SDS011;9163;48.818;8.976;2023-06-14T06:28:30;7.50;;;4.47;;
15936;SDS011;9163;48.818;8.976;2023-06-14T06:30:57;6.90;;;4.50;;
15936;SDS011;9163;48.818;8.976;2023-06-14T06:33:25;7.23;;;4.50;;
15936;SDS011;9163;48.818;8.976;2023-06-14T06:35:53;9.60;;;4.60;;
15936;SDS011;9163;48.818;8.976;2023-06-14T06:38:21;7.60;;;4.83;;
15936;SDS011;9163;48.818;8.976;2023-06-14T06:40:48;8.07;;;4.70;;
15936;SDS011;9163;48.818;8.976;2023-06-14T06:43:18;7.93;;;4.60;;
15936;SDS011;9163;48.818;8.976;2023-06-14T06:45:45;9.03;;;4.80;;
15936;SDS011;9163;48.818;8.976;2023-06-14T06:48:12;7.20;;;4.60;;
15936;SDS011;9163;48.818;8.976;2023-06-14T06:50:41;9.33;;;4.90;;
15936;SDS011;9163;48.818;8.976;2023-06-14T06:53:09;7.03;;;4.50;;
15936;SDS011;9163;48.818;8.976;2023-06-14T06:55:37;5.13;;;4.20;;
15936;SDS011;9163;48.818;8.976;2023-06-14T06:58:04;9.17;;;4.77;;
15936;SDS011;9163;48.818;8.976;2023-06-14T07:00:32;6.43;;;4.40;;
15936;SDS011;9163;48.818;8.976;2023-06-14T07:02:59;7.10;;;4.47;;
15936;SDS011;9163;48.818;8.976;2023-06-14T07:05:26;6.30;;;4.30;;
15936;SDS011;9163;48.818;8.976;2023-06-14T07:07:54;7.10;;;4.27;;
15936;SDS011;9163;48.818;8.976;2023-06-14T07:10:22;8.77;;;4.50;;
15936;SDS011;9163;48.818;8.976;2023-06-14T07:12:50;8.13;;;4.53;;
15936;SDS011;9163;48.818;8.976;2023-06-14T07:15:17;10.17;;;4.73;;
15936;SDS011;9163;48.818;8.976;2023-06-14T07:17:45;9.10;;;4.60;;
15936;SDS011;9163;48.818;8.976;2023-06-14T07:20:12;13.97;;;5.10;;
15936;SDS011;9163;48.818;8.976;2023-06-14T07:22:41;7.60;;;4.37;;
15936;SDS011;9163;48.818;8.976;2023-06-14T07:25:09;9.83;;;5.00;;
15936;SDS011;9163;48.818;8.976;2023-06-14T07:27:40;9.70;;;4.57;;
15936;SDS011;9163;48.818;8.976;2023-06-14T07:30:08;7.60;;;4.37;;
15936;SDS011;9163;48.818;8.976;2023-06-14T07:32:36;7.73;;;4.37;;
15936;SDS011;9163;48.818;8.976;2023-06-14T07:35:04;7.17;;;4.80;;
15936;SDS011;9163;48.818;8.976;2023-06-14T07:37:32;8.50;;;4.73;;
15936;SDS011;9163;48.818;8.976;2023-06-14T07:39:59;7.90;;;4.87;;
15936;SDS011;9163;48.818;8.976;2023-06-14T07:42:28;8.73;;;4.40;;
15936;SDS011;9163;48.818;8.976;2023-06-14T07:44:57;8.03;;;4.27;;
15936;SDS011;9163;48.818;8.976;2023-06-14T07:47:24;7.87;;;4.63;;
15936;SDS011;9163;48.818;8.976;2023-06-14T07:49:52;9.63;;;4.40;;
15936;SDS011;9163;48.818;8.976;2023-06-14T07:52:19;8.07;;;4.63;;
15936;SDS011;9163;48.818;8.976;2023-06-14T07:54:46;9.70;;;4.07;;
15936;SDS011;9163;48.818;8.976;2023-06-14T07:57:13;6.47;;;4.50;;
15936;SDS011;9163;48.818;8.976;2023-06-14T07:59:41;8.10;;;4.47;;
15936;SDS011;9163;48.818;8.976;2023-06-14T08:02:09;9.37;;;4.63;;
15936;SDS011;9163;48.818;8.976;2023-06-14T08:04:37;9.07;;;4.47;;
15936;SDS011;9163;48.818;8.976;2023-06-14T08:07:04;10.10;;;4.30;;
15936;SDS011;9163;48.818;8.976;2023-06-14T08:09:31;10.23;;;4.63;;
15936;SDS011;9163;48.818;8.976;2023-06-14T08:11:58;8.93;;;4.47;;
15936;SDS011;9163;48.818;8.976;2023-06-14T08:14:26;7.30;;;4.77;;
15936;SDS011;9163;48.818;8.976;2023-06-14T08:16:54;6.83;;;4.80;;
15936;SDS011;9163;48.818;8.976;2023-06-14T08:19:22;10.82;;;5.03;;
15936;SDS011;9163;48.818;8.976;2023-06-14T08:21:50;8.32;;;4.07;;
15936;SDS011;9163;48.818;8.976;2023-06-14T08:24:20;7.22;;;4.35;;
15936;SDS011;9163;48.818;8.976;2023-06-14T08:26:49;6.07;;;4.35;;
15936;SDS011;9163;48.818;8.976;2023-06-14T08:29:17;4.82;;;4.28;;
15936;SDS011;9163;48.818;8.976;2023-06-14T08:31:44;6.30;;;4.72;;
15936;SDS011;9163;48.818;8.976;2023-06-14T08:34:12;7.78;;;4.90;;
15936;SDS011;9163;48.818;8.976;2023-06-14T08:36:40;5.97;;;4.47;;
15936;SDS011;9163;48.818;8.976;2023-06-14T08:39:08;6.60;;;4.40;;
15936;SDS011;9163;48.818;8.976;2023-06-14T08:41:35;7.55;;;4.95;;
15936;SDS011;9163;48.818;8.976;2023-06-14T08:44:03;8.63;;;4.50;;
15936;SDS011;9163;48.818;8.976;2023-06-14T08:46:32;8.48;;;4.93;;
15936;SDS011;9163;48.818;8.976;2023-06-14T08:49:00;8.77;;;4.35;;
15936;SDS011;9163;48.818;8.976;2023-06-14T08:51:28;7.30;;;4.32;;
15936;SDS011;9163;48.818;8.976;2023-06-14T08:54:01;8.57;;;4.43;;
15936;SDS011;9163;48.818;8.976;2023-06-14T08:56:30;7.60;;;4.50;;
15936;SDS011;9163;48.818;8.976;2023-06-14T08:58:59;9.70;;;4.55;;
15936;SDS011;9163;48.818;8.976;2023-06-14T09:01:28;5.72;;;4.13;;
15936;SDS011;9163;48.818;8.976;2023-06-14T09:03:57;8.68;;;4.07;;
15936;SDS011;9163;48.818;8.976;2023-06-14T09:06:24;6.50;;;4.35;;
15936;SDS011;9163;48.818;8.976;2023-06-14T09:08:54;5.85;;;4.43;;
15936;SDS011;9163;48.818;8.976;2023-06-14T09:11:24;7.28;;;4.50;;
15936;SDS011;9163;48.818;8.976;2023-06-14T09:13:52;4.32;;;3.75;;
15936;SDS011;9163;48.818;8.976;2023-06-14T09:16:19;5.80;;;4.28;;
15936;SDS011;9163;48.818;8.976;2023-06-14T09:18:47;6.88;;;4.57;;
15936;SDS011;9163;48.818;8.976;2023-06-14T09:21:15;6.80;;;3.97;;
15936;SDS011;9163;48.818;8.976;2023-06-14T09:23:43;10.02;;;4.20;;
15936;SDS011;9163;48.818;8.976;2023-06-14T09:26:12;9.02;;;4.40;;
15936;SDS011;9163;48.818;8.976;2023-06-14T09:28:45;5.70;;;3.90;;
15936;SDS011;9163;48.818;8.976;2023-06-14T09:31:14;7.18;;;3.70;;
15936;SDS011;9163;48.818;8.976;2023-06-14T09:33:43;5.80;;;4.22;;
15936;SDS011;9163;48.818;8.976;2023-06-14T09:36:14;8.05;;;4.20;;
15936;SDS011;9163;48.818;8.976;2023-06-14T09:38:43;7.05;;;4.20;;
15936;SDS011;9163;48.818;8.976;2023-06-14T09:41:18;5.43;;;4.30;;
15936;SDS011;9163;48.818;8.976;2023-06-14T09:43:47;7.88;;;4.35;;
15936;SDS011;9163;48.818;8.976;2023-06-14T09:46:15;9.40;;;4.28;;
15936;SDS011;9163;48.818;8.976;2023-06-14T09:48:43;5.90;;;4.15;;
15936;SDS011;9163;48.818;8.976;2023-06-14T09:51:10;7.38;;;4.00;;
15936;SDS011;9163;48.818;8.976;2023-06-14T09:53:44;6.22;;;4.50;;
15936;SDS011;9163;48.818;8.976;2023-06-14T09:56:13;4.90;;;4.18;;
15936;SDS011;9163;48.818;8.976;2023-06-14T09:58:42;5.10;;;4.35;;
15936;SDS011;9163;48.818;8.976;2023-06-14T10:01:11;6.10;;;3.95;;
15936;SDS011;9163;48.818;8.976;2023-06-14T10:03:39;9.82;;;3.97;;
15936;SDS011;9163;48.818;8.976;2023-06-14T10:06:07;7.05;;;4.43;;
15936;SDS011;9163;48.818;8.976;2023-06-14T10:08:35;6.93;;;4.07;;
15936;SDS011;9163;48.818;8.976;2023-06-14T10:11:04;5.97;;;4.10;;
15936;SDS011;9163;48.818;8.976;2023-06-14T10:13:31;5.63;;;3.80;;
15936;SDS011;9163;48.818;8.976;2023-06-14T10:16:01;5.53;;;3.90;;
15936;SDS011;9163;48.818;8.976;2023-06-14T10:18:40;4.65;;;3.50;;
15936;SDS011;9163;48.818;8.976;2023-06-14T10:21:13;4.78;;;3.53;;
15936;SDS011;9163;48.818;8.976;2023-06-14T10:23:48;7.85;;;3.80;;
15936;SDS011;9163;48.818;8.976;2023-06-14T10:26:18;6.82;;;3.88;;
15936;SDS011;9163;48.818;8.976;2023-06-14T10:28:57;5.93;;;3.60;;
15936;SDS011;9163;48.818;8.976;2023-06-14T10:31:42;8.35;;;3.90;;
15936;SDS011;9163;48.818;8.976;2023-06-14T10:34:12;9.50;;;4.05;;
15936;SDS011;9163;48.818;8.976;2023-06-14T10:36:50;4.88;;;3.58;;
15936;SDS011;9163;48.818;8.976;2023-06-14T10:39:31;5.97;;;3.13;;
15936;SDS011;9163;48.818;8.976;2023-06-14T10:42:01;7.07;;;3.47;;
15936;SDS011;9163;48.818;8.976;2023-06-14T10:44:33;5.85;;;3.40;;
15936;SDS011;9163;48.818;8.976;2023-06-14T10:47:06;4.68;;;3.38;;
15936;SDS011;9163;48.818;8.976;2023-06-14T10:49:39;5.80;;;3.65;;
15936;SDS011;9163;48.818;8.976;2023-06-14T10:52:08;7.00;;;3.55;;
15936;SDS011;9163;48.818;8.976;2023-06-14T10:55:02;4.82;;;3.60;;
15936;SDS011;9163;48.818;8.976;2023-06-14T10:57:37;4.75;;;3.10;;
15936;SDS011;9163;48.818;8.976;2023-06-14T11:00:06;5.32;;;3.67;;
15936;SDS011;9163;48.818;8.976;2023-06-14T11:02:46;8.02;;;3.00;;
15936;SDS011;9163;48.818;8.976;2023-06-14T11:05:23;5.40;;;3.38;;
15936;SDS011;9163;48.818;8.976;2023-06-14T11:07:59;4.88;;;3.35;;
15936;SDS011;9163;48.818;8.976;2023-06-14T11:10:42;5.72;;;3.78;;
15936;SDS011;9163;48.818;8.976;2023-06-14T11:13:11;3.70;;;3.20;;
15936;SDS011;9163;48.818;8.976;2023-06-14T11:15:39;3.72;;;3.10;;
15936;SDS011;9163;48.818;8.976;2023-06-14T11:18:11;5.03;;;3.28;;
15936;SDS011;9163;48.818;8.976;2023-06-14T11:20:41;5.20;;;3.45;;
15936;SDS011;9163;48.818;8.976;2023-06-14T11:23:08;5.82;;;3.30;;
15936;SDS011;9163;48.818;8.976;2023-06-14T11:25:35;7.45;;;3.65;;
15936;SDS011;9163;48.818;8.976;2023-06-14T11:28:02;3.60;;;3.30;;
15936;SDS011;9163;48.818;8.976;2023-06-14T11:30:30;4.95;;;3.58;;
15936;SDS011;9163;48.818;8.976;2023-06-14T11:32:57;4.43;;;3.20;;
15936;SDS011;9163;48.818;8.976;2023-06-14T11:35:25;5.18;;;3.55;;
15936;SDS011;9163;48.818;8.976;2023-06-14T11:37:54;4.60;;;3.58;;
15936;SDS011;9163;48.818;8.976;2023-06-14T11:40:23;5.32;;;3.50;;
15936;SDS011;9163;48.818;8.976;2023-06-14T11:42:57;6.30;;;3.38;;
15936;SDS011;9163;48.818;8.976;2023-06-14T11:45:26;6.10;;;3.28;;
15936;SDS011;9163;48.818;8.976;2023-06-14T11:47:54;4.30;;;3.50;;
15936;SDS011;9163;48.818;8.976;2023-06-14T11:50:22;4.47;;;2.85;;
15936;SDS011;9163;48.818;8.976;2023-06-14T11:52:55;3.72;;;3.17;;
15936;SDS011;9163;48.818;8.976;2023-06-14T11:55:23;5.13;;;2.88;;
15936;SDS011;9163;48.818;8.976;2023-06-14T11:57:51;5.15;;;3.70;;
15936;SDS011;9163;48.818;8.976;2023-06-14T12:00:23;4.47;;;3.22;;
15936;SDS011;9163;48.818;8.976;2023-06-14T12:02:52;8.75;;;3.50;;
15936;SDS011;9163;48.818;8.976;2023-06-14T12:05:21;4.30;;;3.10;;
15936;SDS011;9163;48.818;8.976;2023-06-14T12:07:49;3.67;;;3.13;;
15936;SDS011;9163;48.818;8.976;2023-06-14T12:10:20;4.78;;;2.80;;
15936;SDS011;9163;48.818;8.976;2023-06-14T12:12:47;4.57;;;3.10;;
15936;SDS011;9163;48.818;8.976;2023-06-14T12:15:15;4.70;;;3.30;;
15936;SDS011;9163;48.818;8.976;2023-06-14T12:17:43;5.20;;;3.35;;
15936;SDS011;9163;48.818;8.976;2023-06-14T12:20:12;6.32;;;3.47;;
15936;SDS011;9163;48.818;8.976;2023-06-14T12:22:50;3.97;;;3.30;;
15936;SDS011;9163;48.818;8.976;2023-06-14T12:25:27;4.53;;;3.13;;
15936;SDS011;9163;48.818;8.976;2023-06-14T12:27:57;5.70;;;3.33;;
15936;SDS011;9163;48.818;8.976;2023-06-14T12:30:24;8.68;;;3.50;;
15936;SDS011;9163;48.818;8.976;2023-06-14T12:32:52;5.72;;;3.17;;
15936;SDS011;9163;48.818;8.976;2023-06-14T12:35:19;5.65;;;3.30;;
15936;SDS011;9163;48.818;8.976;2023-06-14T12:37:47;4.43;;;3.28;;
15936;SDS011;9163;48.818;8.976;2023-06-14T12:40:14;5.53;;;3.15;;
15936;SDS011;9163;48.818;8.976;2023-06-14T12:42:44;3.80;;;3.15;;
15936;SDS011;9163;48.818;8.976;2023-06-14T12:45:13;4.38;;;3.22;;
15936;SDS011;9163;48.818;8.976;2023-06-14T12:47:40;4.57;;;3.25;;
15936;SDS011;9163;48.818;8.976;2023-06-14T12:50:07;6.10;;;3.22;;
15936;SDS011;9163;48.818;8.976;2023-06-14T12:52:35;5.85;;;3.30;;
15936;SDS011;9163;48.818;8.976;2023-06-14T12:55:02;4.20;;;3.30;;
15936;SDS011;9163;48.818;8.976;2023-06-14T12:57:30;4.97;;;2.75;;
15936;SDS011;9163;48.818;8.976;2023-06-14T13:00:00;5.43;;;3.20;;
15936;SDS011;9163;48.818;8.976;2023-06-14T13:02:28;5.35;;;3.53;;
15936;SDS011;9163;48.818;8.976;2023-06-14T13:04:55;3.38;;;3.05;;
15936;SDS011;9163;48.818;8.976;2023-06-14T13:07:23;4.72;;;3.50;;
15936;SDS011;9163;48.818;8.976;2023-06-14T13:09:51;5.30;;;3.15;;
15936;SDS011;9163;48.818;8.976;2023-06-14T13:12:18;4.78;;;3.28;;
15936;SDS011;9163;48.818;8.976;2023-06-14T13:14:45;6.40;;;3.22;;
15936;SDS011;9163;48.818;8.976;2023-06-14T13:17:14;4.35;;;3.53;;
15936;SDS011;9163;48.818;8.976;2023-06-14T13:19:41;4.57;;;3.08;;
15936;SDS011;9163;48.818;8.976;2023-06-14T13:22:08;6.82;;;3.05;;
15936;SDS011;9163;48.818;8.976;2023-06-14T13:24:36;3.70;;;3.08;;
15936;SDS011;9163;48.818;8.976;2023-06-14T13:27:03;9.85;;;3.00;;
15936;SDS011;9163;48.818;8.976;2023-06-14T13:29:31;5.70;;;3.20;;
15936;SDS011;9163;48.818;8.976;2023-06-14T13:32:01;3.33;;;3.00;;
15936;SDS011;9163;48.818;8.976;2023-06-14T13:34:29;5.07;;;2.97;;
15936;SDS011;9163;48.818;8.976;2023-06-14T13:36:57;4.65;;;3.10;;
15936;SDS011;9163;48.818;8.976;2023-06-14T13:39:24;3.60;;;2.80;;
15936;SDS011;9163;48.818;8.976;2023-06-14T13:41:51;5.32;;;3.00;;
15936;SDS011;9163;48.818;8.976;2023-06-14T13:44:19;5.47;;;2.85;;
15936;SDS011;9163;48.818;8.976;2023-06-14T13:46:46;3.95;;;2.97;;
15936;SDS011;9163;48.818;8.976;2023-06-14T13:49:14;6.03;;;3.15;;
15936;SDS011;9163;48.818;8.976;2023-06-14T13:51:42;3.92;;;3.00;;
15936;SDS011;9163;48.818;8.976;2023-06-14T13:54:11;3.60;;;2.90;;
15936;SDS011;9163;48.818;8.976;2023-06-14T13:56:40;6.10;;;3.35;;
15936;SDS011;9163;48.818;8.976;2023-06-14T13:59:07;4.60;;;3.28;;
15936;SDS011;9163;48.818;8.976;2023-06-14T14:01:35;6.05;;;3.20;;
15936;SDS011;9163;48.818;8.976;2023-06-14T14:04:02;5.55;;;3.50;;
15936;SDS011;9163;48.818;8.976;2023-06-14T14:06:30;3.30;;;3.00;;
15936;SDS011;9163;48.818;8.976;2023-06-14T14:08:59;4.47;;;3.22;;
15936;SDS011;9163;48.818;8.976;2023-06-14T14:11:27;5.63;;;3.00;;
15936;SDS011;9163;48.818;8.976;2023-06-14T14:13:58;4.25;;;3.20;;
15936;SDS011;9163;48.818;8.976;2023-06-14T14:16:26;5.22;;;2.80;;
15936;SDS011;9163;48.818;8.976;2023-06-14T14:18:54;5.10;;;2.90;;
15936;SDS011;9163;48.818;8.976;2023-06-14T14:21:21;7.35;;;2.90;;
15936;SDS011;9163;48.818;8.976;2023-06-14T14:23:48;4.50;;;3.10;;
15936;SDS011;9163;48.818;8.976;2023-06-14T14:26:18;5.00;;;3.22;;
15936;SDS011;9163;48.818;8.976;2023-06-14T14:28:45;7.68;;;3.35;;
15936;SDS011;9163;48.818;8.976;2023-06-14T14:31:13;4.03;;;3.20;;
15936;SDS011;9163;48.818;8.976;2023-06-14T14:33:40;5.03;;;3.00;;
15936;SDS011;9163;48.818;8.976;2023-06-14T14:36:07;6.15;;;3.00;;
15936;SDS011;9163;48.818;8.976;2023-06-14T14:38:35;5.80;;;3.10;;
15936;SDS011;9163;48.818;8.976;2023-06-14T14:41:02;3.10;;;2.85;;
15936;SDS011;9163;48.818;8.976;2023-06-14T14:43:31;3.83;;;3.40;;
15936;SDS011;9163;48.818;8.976;2023-06-14T14:45:58;6.22;;;3.10;;
15936;SDS011;9163;48.818;8.976;2023-06-14T14:48:26;6.60;;;3.13;;
15936;SDS011;9163;48.818;8.976;2023-06-14T14:50:53;5.82;;;3.10;;
15936;SDS011;9163;48.818;8.976;2023-06-14T14:53:20;4.07;;;3.20;;
15936;SDS011;9163;48.818;8.976;2023-06-14T14:55:48;3.90;;;3.20;;
15936;SDS011;9163;48.818;8.976;2023-06-14T14:58:15;4.00;;;3.33;;
15936;SDS011;9163;48.818;8.976;2023-06-14T15:00:45;8.18;;;3.63;;
15936;SDS011;9163;48.818;8.976;2023-06-14T15:03:12;5.32;;;3.25;;
15936;SDS011;9163;48.818;8.976;2023-06-14T15:05:40;4.65;;;3.22;;
15936;SDS011;9163;48.818;8.976;2023-06-14T15:08:07;4.75;;;3.00;;